createdAt,value
2019-03-16T00:02:20.424Z,9.60
2019-03-16T00:04:50.351Z,9.60
2019-03-16T00:07:32.447Z,9.60
2019-03-16T00:09:51.914Z,9.60
2019-03-16T00:12:21.907Z,9.60
2019-03-16T00:14:51.834Z,9.60
2019-03-16T00:17:25.297Z,9.60
2019-03-16T00:20:02.745Z,9.60
2019-03-16T00:22:34.197Z,9.60
2019-03-16T00:25:05.672Z,9.60
2019-03-16T00:27:43.295Z,9.60
2019-03-16T00:30:15.053Z,9.60
2019-03-16T00:32:45.229Z,9.60
2019-03-16T00:35:15.369Z,9.60
2019-03-16T00:37:45.428Z,9.50
2019-03-16T00:40:16.936Z,9.60
2019-03-16T00:42:46.985Z,9.60
2019-03-16T00:45:18.719Z,9.60
2019-03-16T00:47:53.478Z,9.50
2019-03-16T00:50:20.860Z,9.60
2019-03-16T00:52:50.755Z,9.60
2019-03-16T00:55:22.374Z,9.50
2019-03-16T00:58:13.311Z,9.50
2019-03-16T01:00:59.485Z,9.60
2019-03-16T01:03:30.745Z,9.50
2019-03-16T01:06:00.760Z,9.50
2019-03-16T01:08:38.953Z,9.40
2019-03-16T01:11:10.362Z,9.50
2019-03-16T01:26:28.296Z,9.40
2019-03-16T01:57:50.118Z,9.30
2019-03-16T02:22:13.631Z,9.10
2019-03-16T02:24:45.208Z,9.10
2019-03-16T02:27:18.558Z,9.00
2019-03-16T02:29:53.331Z,9.10
2019-03-16T02:32:26.536Z,9.00
2019-03-16T02:35:06.120Z,9.00
2019-03-16T02:37:39.760Z,9.00
2019-03-16T02:40:23.259Z,9.00
2019-03-16T02:42:59.300Z,9.00
2019-03-16T02:45:34.117Z,8.90
2019-03-16T02:48:12.111Z,8.90
2019-03-16T02:50:43.751Z,9.00
2019-03-16T02:53:19.465Z,8.90
2019-03-16T02:55:49.353Z,8.90
2019-03-16T02:58:28.247Z,8.90
2019-03-16T03:01:02.243Z,8.90
2019-03-16T03:03:36.813Z,8.90
2019-03-16T03:06:10.984Z,8.90
2019-03-16T03:08:46.231Z,8.90
2019-03-16T03:11:17.607Z,8.80
2019-03-16T03:13:47.452Z,8.80
2019-03-16T03:16:17.768Z,8.80
2019-03-16T03:18:49.549Z,8.80
2019-03-16T03:21:19.348Z,8.80
2019-03-16T03:23:49.216Z,8.80
2019-03-16T03:26:19.053Z,8.80
2019-03-16T03:28:48.902Z,8.80
2019-03-16T03:31:18.813Z,8.70
2019-03-16T03:34:00.491Z,8.70
2019-03-16T03:36:20.185Z,8.70
2019-03-16T03:38:50.001Z,8.70
2019-03-16T03:41:20.008Z,8.70
2019-03-16T03:43:49.862Z,8.70
2019-03-16T03:46:19.837Z,8.70
2019-03-16T03:48:49.680Z,8.70
2019-03-16T03:51:19.486Z,8.60
2019-03-16T03:53:49.330Z,8.60
2019-03-16T03:56:19.247Z,8.50
2019-03-16T03:58:49.160Z,8.50
2019-03-16T04:01:18.986Z,8.40
2019-03-16T04:03:48.759Z,8.40
2019-03-16T04:06:18.606Z,8.40
2019-03-16T04:08:48.427Z,8.40
2019-03-16T04:11:18.333Z,8.40
2019-03-16T04:13:48.140Z,8.40
2019-03-16T04:16:17.953Z,8.40
2019-03-16T04:18:51.468Z,8.40
2019-03-16T04:21:19.428Z,8.40
2019-03-16T04:23:49.233Z,8.40
2019-03-16T04:26:19.003Z,8.40
2019-03-16T04:28:48.880Z,8.40
2019-03-16T04:31:18.608Z,8.40
2019-03-16T04:33:48.480Z,8.40
2019-03-16T04:36:18.389Z,8.40
2019-03-16T04:38:48.200Z,8.40
2019-03-16T04:41:18.007Z,8.40
2019-03-16T04:43:47.957Z,8.40
2019-03-16T04:46:17.985Z,8.40
2019-03-16T04:48:49.011Z,8.40
2019-03-16T04:51:18.823Z,8.40
2019-03-16T04:53:48.639Z,8.40
2019-03-16T04:56:18.368Z,8.40
2019-03-16T04:58:48.166Z,8.40
2019-03-16T05:01:17.866Z,8.40
2019-03-16T05:03:47.687Z,8.40
2019-03-16T05:06:17.417Z,8.40
2019-03-16T05:08:47.137Z,8.40
2019-03-16T05:11:16.923Z,8.30
2019-03-16T05:13:47.250Z,8.40
2019-03-16T05:16:16.887Z,8.40
2019-03-16T05:18:46.740Z,8.40
2019-03-16T05:21:16.656Z,8.40
2019-03-16T05:23:46.377Z,8.40
2019-03-16T05:26:16.166Z,8.40
2019-03-16T05:28:45.789Z,8.40
2019-03-16T05:31:15.994Z,8.40
2019-03-16T05:33:45.728Z,8.40
2019-03-16T05:36:15.526Z,8.40
2019-03-16T05:38:45.259Z,8.40
2019-03-16T05:41:15.111Z,8.40
2019-03-16T05:43:44.917Z,8.40
2019-03-16T05:46:14.643Z,8.40
2019-03-16T05:48:44.445Z,8.40
2019-03-16T05:51:14.264Z,8.50
2019-03-16T05:53:44.051Z,8.50
2019-03-16T05:56:13.907Z,8.50
2019-03-16T05:58:43.716Z,8.60
2019-03-16T06:01:13.457Z,8.70
2019-03-16T06:03:43.208Z,8.80
2019-03-16T06:06:12.943Z,8.90
2019-03-16T06:08:42.760Z,9.00
2019-03-16T06:11:12.593Z,9.10
2019-03-16T06:13:42.353Z,9.20
2019-03-16T06:16:12.136Z,9.30
2019-03-16T06:18:41.942Z,9.40
2019-03-16T06:21:12.893Z,9.50
2019-03-16T06:23:42.667Z,9.50
2019-03-16T06:26:38.261Z,9.60
2019-03-16T06:29:06.475Z,9.70
2019-03-16T06:31:36.298Z,9.70
2019-03-16T06:34:08.247Z,9.80
2019-03-16T06:36:37.889Z,9.80
2019-03-16T06:39:08.508Z,9.80
2019-03-16T06:41:38.277Z,9.90
2019-03-16T06:44:08.137Z,9.90
2019-03-16T06:46:42.822Z,9.90
2019-03-16T06:52:25.396Z,9.90
2019-03-16T06:55:03.456Z,10.00
2019-03-16T07:07:02.874Z,10.00
2019-03-16T07:09:45.369Z,10.00
2019-03-16T07:12:38.840Z,10.00
2019-03-16T07:15:19.535Z,10.00
2019-03-16T07:18:19.454Z,10.10
2019-03-16T07:27:09.661Z,10.10
2019-03-16T07:29:42.990Z,10.10
2019-03-16T07:32:20.487Z,10.10
2019-03-16T07:34:53.482Z,10.10
2019-03-16T07:37:26.497Z,10.00
2019-03-16T07:39:56.189Z,10.10
2019-03-16T07:42:26.137Z,10.00
2019-03-16T07:45:07.471Z,10.10
2019-03-16T07:47:27.517Z,10.10
2019-03-16T07:49:57.327Z,10.10
2019-03-16T07:52:27.174Z,10.10
2019-03-16T07:54:56.991Z,10.00
2019-03-16T07:57:39.297Z,10.00
2019-03-16T07:59:58.469Z,10.00
2019-03-16T08:02:28.330Z,10.00
2019-03-16T08:04:58.181Z,10.00
2019-03-16T08:07:28.205Z,10.00
2019-03-16T08:09:58.099Z,10.10
2019-03-16T08:12:32.459Z,10.10
2019-03-16T08:15:03.959Z,10.10
2019-03-16T08:17:33.821Z,10.00
2019-03-16T08:20:07.125Z,10.10
2019-03-16T08:22:37.117Z,10.00
2019-03-16T08:25:08.168Z,10.00
2019-03-16T08:27:38.138Z,10.10
2019-03-16T08:30:11.371Z,10.10
2019-03-16T08:32:43.769Z,10.10
2019-03-16T08:35:13.852Z,10.10
2019-03-16T08:37:43.898Z,10.10
2019-03-16T08:40:23.296Z,10.20
2019-03-16T08:42:57.379Z,10.20
2019-03-16T08:45:27.094Z,10.20
2019-03-16T08:48:03.224Z,10.20
2019-03-16T08:50:32.954Z,10.20
2019-03-16T08:53:22.901Z,10.20
2019-03-16T08:56:10.102Z,10.20
2019-03-16T08:59:01.542Z,10.20
2019-03-16T09:11:33.946Z,10.20
2019-03-16T09:17:53.910Z,10.30
2019-03-16T10:13:53.650Z,11.40
2019-03-16T10:16:23.377Z,11.30
2019-03-16T10:18:53.262Z,11.30
2019-03-16T10:21:23.970Z,11.30
2019-03-16T10:23:53.704Z,11.30
2019-03-16T10:26:23.539Z,11.30
2019-03-16T10:28:53.373Z,11.30
2019-03-16T10:31:23.159Z,11.30
2019-03-16T10:37:21.291Z,11.40
2019-03-16T10:39:54.100Z,11.40
2019-03-16T10:42:31.423Z,11.40
2019-03-16T10:45:13.662Z,11.40
2019-03-16T10:47:44.941Z,11.40
2019-03-16T10:50:15.469Z,11.30
2019-03-16T10:52:46.815Z,11.30
2019-03-16T10:55:28.717Z,11.40
2019-03-16T10:58:00.052Z,11.40
2019-03-16T11:00:33.632Z,11.40
2019-03-16T11:03:04.331Z,11.40
2019-03-16T11:05:38.082Z,11.40
2019-03-16T11:08:09.159Z,11.40
2019-03-16T11:10:43.264Z,11.40
2019-03-16T11:13:14.268Z,11.40
2019-03-16T11:18:22.765Z,11.30
2019-03-16T11:20:58.847Z,11.30
2019-03-16T11:23:30.424Z,11.30
2019-03-16T11:26:00.465Z,11.30
2019-03-16T11:28:51.687Z,11.30
2019-03-16T11:31:11.677Z,11.30
2019-03-16T11:33:50.496Z,11.40
2019-03-16T11:36:58.206Z,11.40
2019-03-16T11:39:32.067Z,11.40
2019-03-16T11:42:10.910Z,11.40
2019-03-16T11:44:47.472Z,11.40
2019-03-16T11:49:45.360Z,11.40
2019-03-16T11:52:17.728Z,11.40
2019-03-16T11:54:52.200Z,11.40
2019-03-16T11:57:28.015Z,11.50
2019-03-16T12:00:07.704Z,11.60
2019-03-16T12:02:43.073Z,11.60
2019-03-16T12:05:21.040Z,11.60
2019-03-16T12:08:07.643Z,11.60
2019-03-16T12:10:57.848Z,11.60
2019-03-16T12:13:43.782Z,11.60
2019-03-16T12:16:18.518Z,11.50
2019-03-16T12:19:06.766Z,11.50
2019-03-16T12:21:24.500Z,11.50
2019-03-16T12:24:04.062Z,11.60
2019-03-16T12:26:34.143Z,11.60
2019-03-16T12:29:04.133Z,11.70
2019-03-16T12:31:35.537Z,11.70
2019-03-16T12:34:14.599Z,11.70
2019-03-16T12:36:45.614Z,11.70
2019-03-16T12:39:25.922Z,11.70
2019-03-16T12:42:01.920Z,11.70
2019-03-16T12:44:30.980Z,11.70
2019-03-16T12:47:03.285Z,11.70
2019-03-16T12:49:33.169Z,11.70
2019-03-16T12:52:03.227Z,11.80
2019-03-16T12:54:33.039Z,11.70
2019-03-16T12:57:02.923Z,11.70
2019-03-16T12:59:48.057Z,11.70
2019-03-16T13:02:22.679Z,11.70
2019-03-16T13:04:54.382Z,11.60
2019-03-16T13:07:27.638Z,11.70
2019-03-16T13:10:02.022Z,11.70
2019-03-16T13:12:42.368Z,11.70
2019-03-16T13:15:18.502Z,11.70
2019-03-16T13:17:47.772Z,11.70
2019-03-16T13:20:26.713Z,11.70
2019-03-16T13:23:05.269Z,11.70
2019-03-16T13:25:43.095Z,11.70
2019-03-16T13:28:15.673Z,11.60
2019-03-16T13:30:45.664Z,11.70
2019-03-16T13:33:21.489Z,11.70
2019-03-16T13:35:52.477Z,11.70
2019-03-16T13:38:22.992Z,11.60
2019-03-16T13:44:14.804Z,11.60
2019-03-16T13:46:47.366Z,11.60
2019-03-16T13:49:23.362Z,11.60
2019-03-16T13:51:53.364Z,11.60
2019-03-16T13:54:23.391Z,11.60
2019-03-16T13:56:53.245Z,11.60
2019-03-16T13:59:23.330Z,11.60
2019-03-16T14:01:53.189Z,11.60
2019-03-16T14:04:24.324Z,11.60
2019-03-16T14:07:08.131Z,11.60
2019-03-16T14:09:38.120Z,11.50
2019-03-16T14:12:09.774Z,11.60
2019-03-16T14:14:41.277Z,11.60
2019-03-16T14:17:14.599Z,11.60
2019-03-16T14:19:47.475Z,11.60
2019-03-16T14:22:18.869Z,11.50
2019-03-16T14:24:48.800Z,11.60
2019-03-16T14:27:22.699Z,11.50
2019-03-16T14:29:54.313Z,11.60
2019-03-16T14:32:24.206Z,11.60
2019-03-16T14:34:54.351Z,11.60
2019-03-16T14:37:27.660Z,11.60
2019-03-16T14:40:14.980Z,11.60
2019-03-16T14:42:42.525Z,11.60
2019-03-16T14:45:36.881Z,11.60
2019-03-16T14:48:09.304Z,11.60
2019-03-16T14:50:44.784Z,11.60
2019-03-16T14:53:18.422Z,11.60
2019-03-16T14:55:48.331Z,11.60
2019-03-16T14:58:25.476Z,11.50
2019-03-16T15:01:07.990Z,11.50
2019-03-16T15:12:39.082Z,11.50
2019-03-16T15:15:27.104Z,11.50
2019-03-16T15:17:52.843Z,11.60
2019-03-16T15:26:47.331Z,11.60
2019-03-16T15:29:26.583Z,11.60
2019-03-16T15:31:57.860Z,11.60
2019-03-16T15:34:32.998Z,11.60
2019-03-16T15:43:05.130Z,11.60
2019-03-16T15:45:39.383Z,11.60
2019-03-16T15:48:32.381Z,11.60
2019-03-16T15:51:06.773Z,11.60
2019-03-16T15:54:13.295Z,11.60
2019-03-16T15:56:45.653Z,11.60
2019-03-16T16:14:06.682Z,11.50
2019-03-16T16:19:34.246Z,11.50
2019-03-16T16:22:08.743Z,11.50
2019-03-16T16:24:43.490Z,11.50
2019-03-16T16:27:13.621Z,11.50
2019-03-16T16:29:51.910Z,11.50
2019-03-16T16:32:36.357Z,11.50
2019-03-16T16:35:12.166Z,11.50
2019-03-16T16:40:16.339Z,11.50
2019-03-16T16:42:47.692Z,11.50
2019-03-16T16:45:18.970Z,11.50
2019-03-16T16:47:48.957Z,11.50
2019-03-16T16:50:24.532Z,11.50
2019-03-16T16:52:55.852Z,11.50
2019-03-16T16:55:32.008Z,11.50
2019-03-16T16:58:01.947Z,11.50
2019-03-16T17:00:33.275Z,11.50
2019-03-16T17:05:58.957Z,11.50
2019-03-16T17:08:36.663Z,11.40
2019-03-16T17:16:54.675Z,11.40
2019-03-16T17:19:36.003Z,11.40
2019-03-16T19:27:19.376Z,11.70
2019-03-16T20:04:50.774Z,11.90
2019-03-16T20:07:22.936Z,12.00
2019-03-16T20:09:52.869Z,12.00
2019-03-16T20:12:22.742Z,12.00
2019-03-16T20:14:53.910Z,12.00
2019-03-16T20:17:25.128Z,12.00
2019-03-16T20:19:54.999Z,12.00
2019-03-16T20:22:24.826Z,12.00
2019-03-16T20:24:54.789Z,12.00
2019-03-16T20:27:26.574Z,12.00
2019-03-16T20:29:56.454Z,11.90
2019-03-16T20:32:26.339Z,11.90
2019-03-16T20:34:56.228Z,11.90
2019-03-16T20:37:26.196Z,11.90
2019-03-16T20:39:56.085Z,11.90
2019-03-16T20:42:25.941Z,11.90
2019-03-16T20:44:55.843Z,11.90
2019-03-16T20:47:27.243Z,11.90
2019-03-16T20:49:57.079Z,11.90
2019-03-16T20:52:27.050Z,11.90
2019-03-16T20:54:57.005Z,11.90
2019-03-16T20:57:27.043Z,11.90
2019-03-16T20:59:56.988Z,11.80
2019-03-16T21:02:26.867Z,11.80
2019-03-16T21:04:56.706Z,11.80
2019-03-16T21:07:26.551Z,11.80
2019-03-16T21:09:56.379Z,11.80
2019-03-16T21:12:26.209Z,11.70
2019-03-16T21:14:56.148Z,11.70
2019-03-16T21:17:26.718Z,11.70
2019-03-16T21:19:56.689Z,11.60
2019-03-16T21:22:35.508Z,11.60
2019-03-16T21:24:58.016Z,11.60
2019-03-16T21:27:27.864Z,11.60
2019-03-16T21:29:57.679Z,11.60
2019-03-16T21:32:27.628Z,11.60
2019-03-16T21:34:57.469Z,11.60
2019-03-16T21:37:27.539Z,11.60
2019-03-16T21:39:57.842Z,11.60
2019-03-16T21:42:27.764Z,11.60
2019-03-16T21:44:57.775Z,11.60
2019-03-16T21:47:27.580Z,11.50
2019-03-16T21:49:57.935Z,11.60
2019-03-16T21:52:27.771Z,11.50
2019-03-16T21:55:00.624Z,11.50
2019-03-16T21:57:30.643Z,11.50
2019-03-16T22:00:00.677Z,11.50
2019-03-16T22:02:30.494Z,11.50
2019-03-16T22:05:03.327Z,11.40
2019-03-16T22:07:33.136Z,11.50
2019-03-16T22:10:04.565Z,11.50
2019-03-16T22:12:37.176Z,11.50
2019-03-16T22:15:16.007Z,11.40
2019-03-16T22:20:45.467Z,11.40
2019-03-16T22:23:16.952Z,11.40
2019-03-16T22:26:00.692Z,11.40
2019-03-16T22:28:35.386Z,11.40
2019-03-16T22:31:20.416Z,11.40
2019-03-16T22:33:54.721Z,11.40
2019-03-16T22:36:36.021Z,11.40
2019-03-16T22:39:10.112Z,11.40
2019-03-16T22:41:41.699Z,11.40
2019-03-16T22:44:13.227Z,11.40
2019-03-16T22:46:44.522Z,11.40
2019-03-16T22:49:25.243Z,11.40
2019-03-16T22:54:55.934Z,11.40
2019-03-16T22:57:43.870Z,11.40
2019-03-16T23:00:49.906Z,11.40
2019-03-16T23:03:27.694Z,11.40
2019-03-16T23:05:58.267Z,11.40
2019-03-16T23:08:29.741Z,11.40
2019-03-16T23:11:08.634Z,11.30
2019-03-16T23:13:59.311Z,11.30
2019-03-16T23:16:41.706Z,11.30
2019-03-16T23:19:19.981Z,11.30
2019-03-16T23:21:52.880Z,11.40
2019-03-16T23:24:25.618Z,11.40
2019-03-16T23:27:01.872Z,11.40
2019-03-16T23:29:38.498Z,11.40
2019-03-16T23:32:18.120Z,11.40
2019-03-16T23:34:52.017Z,11.50
2019-03-16T23:37:27.180Z,11.40
2019-03-16T23:40:01.450Z,11.50
2019-03-16T23:43:02.606Z,11.50
2019-03-16T23:45:35.052Z,11.50
2019-03-16T23:48:06.267Z,11.50
2019-03-16T23:50:45.956Z,11.50
2019-03-16T23:53:16.357Z,11.50
2019-03-16T23:55:47.164Z,11.50
2019-03-16T23:58:19.398Z,11.50
